createdAt,value
2022-08-03T00:01:29.214Z,101316.78
2022-08-03T00:03:55.631Z,101315.06
2022-08-03T00:06:21.955Z,101312.41
2022-08-03T00:08:48.264Z,101317.97
2022-08-03T00:11:14.558Z,101311.94
2022-08-03T00:13:40.888Z,101308.53
2022-08-03T00:16:07.301Z,101305.94
2022-08-03T00:18:33.600Z,101306.91
2022-08-03T00:21:00.005Z,101308.84
2022-08-03T00:23:28.408Z,101303.66
2022-08-03T00:25:58.202Z,101296.66
2022-08-03T00:28:24.530Z,101302.03
2022-08-03T00:30:53.620Z,101299.44
2022-08-03T00:33:20.342Z,101298.63
2022-08-03T00:35:50.946Z,101296.91
2022-08-03T00:38:17.827Z,101297.88
2022-08-03T00:40:44.124Z,101298.03
2022-08-03T00:43:11.459Z,101300.00
2022-08-03T00:45:39.042Z,101303.75
2022-08-03T00:48:06.099Z,101297.53
2022-08-03T00:50:47.575Z,101296.72
2022-08-03T00:53:18.456Z,101296.78
2022-08-03T00:55:45.033Z,101301.25
2022-08-03T00:58:11.847Z,101292.41
2022-08-03T01:00:39.259Z,101290.72
2022-08-03T01:03:06.127Z,101291.78
2022-08-03T01:05:38.338Z,101283.91
2022-08-03T01:08:27.788Z,101285.78
2022-08-03T01:11:00.391Z,101284.09
2022-08-03T01:14:03.431Z,101283.31
2022-08-03T01:16:42.109Z,101281.66
2022-08-03T01:19:29.837Z,101282.59
2022-08-03T01:22:05.191Z,101283.56
2022-08-03T01:24:34.583Z,101272.97
2022-08-03T01:27:08.959Z,101267.66
2022-08-03T01:29:35.231Z,101268.59
2022-08-03T01:33:00.900Z,101278.41
2022-08-03T01:35:00.771Z,101271.34
2022-08-03T01:37:31.861Z,101268.78
2022-08-03T01:39:59.706Z,101272.44
2022-08-03T01:42:26.520Z,101271.59
2022-08-03T01:44:53.147Z,101268.09
2022-08-03T01:47:20.630Z,101267.28
2022-08-03T01:49:48.058Z,101269.09
2022-08-03T01:52:17.297Z,101266.53
2022-08-03T01:54:45.337Z,101268.28
2022-08-03T01:57:12.080Z,101261.19
2022-08-03T01:59:39.214Z,101262.00
2022-08-03T02:02:29.143Z,101261.06
2022-08-03T02:04:53.992Z,101263.69
2022-08-03T02:07:20.698Z,101257.41
2022-08-03T02:09:49.493Z,101256.47
2022-08-03T02:12:16.081Z,101255.63
2022-08-03T02:14:44.362Z,101256.56
2022-08-03T02:17:12.373Z,101253.06
2022-08-03T02:19:39.287Z,101251.41
2022-08-03T02:22:05.773Z,101249.75
2022-08-03T02:24:32.148Z,101250.72
2022-08-03T02:26:59.828Z,101253.44
2022-08-03T02:29:38.806Z,101249.06
2022-08-03T02:32:08.968Z,101252.69
2022-08-03T02:34:36.205Z,101251.81
2022-08-03T02:37:04.469Z,101257.13
2022-08-03T02:39:33.252Z,101250.88
2022-08-03T02:42:03.390Z,101247.34
2022-08-03T02:44:34.729Z,101243.88
2022-08-03T02:47:03.373Z,101242.06
2022-08-03T02:49:41.137Z,101244.75
2022-08-03T02:52:17.714Z,101242.09
2022-08-03T02:54:44.439Z,101242.06
2022-08-03T02:57:11.302Z,101252.75
2022-08-03T02:59:39.373Z,101241.22
2022-08-03T03:02:05.997Z,101237.63
2022-08-03T03:04:33.278Z,101239.41
2022-08-03T03:07:00.211Z,101239.44
2022-08-03T03:09:29.164Z,101231.41
2022-08-03T03:12:08.325Z,101226.16
2022-08-03T03:14:36.290Z,101226.19
2022-08-03T03:17:03.477Z,101231.59
2022-08-03T03:19:32.424Z,101228.97
2022-08-03T03:22:00.276Z,101236.97
2022-08-03T03:24:27.690Z,101233.50
2022-08-03T03:26:54.386Z,101236.16
2022-08-03T03:29:21.207Z,101236.16
2022-08-03T03:31:48.031Z,101243.25
2022-08-03T03:34:14.765Z,101238.84
2022-08-03T03:36:41.302Z,101241.53
2022-08-03T03:39:15.427Z,101237.16
2022-08-03T03:41:42.613Z,101237.13
2022-08-03T03:44:08.918Z,101230.03
2022-08-03T03:46:35.328Z,101233.56
2022-08-03T03:49:01.734Z,101239.78
2022-08-03T03:51:28.159Z,101236.22
2022-08-03T03:53:58.841Z,101236.22
2022-08-03T03:56:25.572Z,101236.22
2022-08-03T03:58:52.030Z,101235.38
2022-08-03T04:01:18.795Z,101238.88
2022-08-03T04:03:45.196Z,101243.34
2022-08-03T04:06:30.728Z,101236.19
2022-08-03T04:09:20.194Z,101241.53
2022-08-03T04:11:51.870Z,101244.16
2022-08-03T04:14:37.457Z,101244.13
2022-08-03T04:17:05.498Z,101241.34
2022-08-03T04:19:39.411Z,101239.53
2022-08-03T04:22:14.004Z,101236.75
2022-08-03T04:24:43.230Z,101239.38
2022-08-03T04:27:11.441Z,101244.63
2022-08-03T04:29:48.076Z,101249.00
2022-08-03T04:32:15.295Z,101235.50
2022-08-03T04:34:41.867Z,101246.00
2022-08-03T04:37:13.747Z,101249.41
2022-08-03T04:39:42.041Z,101245.66
2022-08-03T04:42:10.193Z,101247.25
2022-08-03T04:44:37.840Z,101250.50
2022-08-03T04:47:04.201Z,101251.00
2022-08-03T04:49:31.242Z,101248.00
2022-08-03T04:51:57.928Z,101243.31
2022-08-03T04:54:24.349Z,101244.72
2022-08-03T04:56:50.722Z,101242.41
2022-08-03T04:59:17.804Z,101243.59
2022-08-03T05:01:44.245Z,101241.22
2022-08-03T05:04:10.664Z,101236.22
2022-08-03T05:06:37.073Z,101235.41
2022-08-03T05:09:14.277Z,101241.09
2022-08-03T05:11:40.903Z,101242.31
2022-08-03T05:14:07.245Z,101234.75
2022-08-03T05:16:33.651Z,101237.13
2022-08-03T05:18:59.977Z,101233.25
2022-08-03T05:21:26.450Z,101231.97
2022-08-03T05:24:12.742Z,101234.28
2022-08-03T05:26:39.072Z,101231.22
2022-08-03T05:29:05.395Z,101236.31
2022-08-03T05:31:31.706Z,101231.84
2022-08-03T05:33:58.020Z,101241.63
2022-08-03T05:36:24.382Z,101236.00
2022-08-03T05:38:50.705Z,101226.72
2022-08-03T05:41:20.507Z,101228.00
2022-08-03T05:43:50.848Z,101227.69
2022-08-03T05:46:17.184Z,101226.38
2022-08-03T05:48:43.760Z,101220.44
2022-08-03T05:51:11.747Z,101231.66
2022-08-03T05:53:38.822Z,101227.63
2022-08-03T05:56:14.481Z,101221.72
2022-08-03T05:58:43.391Z,101228.31
2022-08-03T06:01:09.759Z,101222.13
2022-08-03T06:03:36.087Z,101219.53
2022-08-03T06:06:02.403Z,101215.16
2022-08-03T06:08:28.723Z,101212.63
2022-08-03T06:10:55.058Z,101211.94
2022-08-03T06:13:21.962Z,101217.66
2022-08-03T06:15:48.316Z,101215.31
2022-08-03T06:18:14.670Z,101217.13
2022-08-03T06:20:40.989Z,101220.88
2022-08-03T06:23:07.919Z,101215.03
2022-08-03T06:25:42.734Z,101219.94
2022-08-03T06:28:15.013Z,101218.25
2022-08-03T06:30:50.236Z,101222.94
2022-08-03T06:33:16.696Z,101223.22
2022-08-03T06:35:43.036Z,101224.41
2022-08-03T06:38:12.916Z,101222.38
2022-08-03T06:40:40.076Z,101222.88
2022-08-03T06:43:09.540Z,101225.03
2022-08-03T06:45:38.921Z,101220.91
2022-08-03T06:48:06.254Z,101219.72
2022-08-03T06:50:33.174Z,101216.63
2022-08-03T06:53:00.381Z,101228.28
2022-08-03T06:55:26.903Z,101221.91
2022-08-03T06:57:53.365Z,101220.38
2022-08-03T07:00:20.313Z,101230.44
2022-08-03T07:02:46.775Z,101224.16
2022-08-03T07:05:13.703Z,101222.84
2022-08-03T07:07:40.481Z,101231.97
2022-08-03T07:10:07.477Z,101222.50
2022-08-03T07:12:34.118Z,101231.53
2022-08-03T07:15:03.102Z,101233.28
2022-08-03T07:17:30.902Z,101230.06
2022-08-03T07:19:57.786Z,101226.56
2022-08-03T07:22:24.143Z,101231.97
2022-08-03T07:24:50.465Z,101230.91
2022-08-03T07:27:16.836Z,101231.34
2022-08-03T07:29:43.157Z,101238.09
2022-08-03T07:32:09.618Z,101234.69
2022-08-03T07:34:35.990Z,101233.16
2022-08-03T07:37:02.295Z,101223.63
2022-08-03T07:39:28.609Z,101228.56
2022-08-03T07:41:54.996Z,101235.13
2022-08-03T07:44:21.387Z,101230.59
2022-08-03T07:46:47.798Z,101225.63
2022-08-03T07:49:14.182Z,101234.22
2022-08-03T07:51:40.764Z,101231.63
2022-08-03T07:54:07.713Z,101236.28
2022-08-03T07:56:34.051Z,101238.78
2022-08-03T07:59:00.402Z,101232.31
2022-08-03T08:01:26.784Z,101224.94
2022-08-03T08:03:53.819Z,101220.50
2022-08-03T08:06:20.631Z,101223.31
2022-08-03T08:08:47.019Z,101225.13
2022-08-03T08:11:13.385Z,101222.88
2022-08-03T08:13:39.716Z,101214.66
2022-08-03T08:16:06.366Z,101219.81
2022-08-03T08:18:32.821Z,101224.16
2022-08-03T08:20:59.243Z,101220.16
2022-08-03T08:23:42.558Z,101216.13
2022-08-03T08:26:10.797Z,101218.19
2022-08-03T08:28:37.139Z,101222.28
2022-08-03T08:31:03.561Z,101223.25
2022-08-03T08:36:16.372Z,101218.63
2022-08-03T08:38:44.520Z,101216.13
2022-08-03T08:41:11.310Z,101211.50
2022-08-03T08:43:37.783Z,101216.84
2022-08-03T08:46:05.496Z,101207.06
2022-08-03T08:48:32.048Z,101211.53
2022-08-03T08:50:59.570Z,101207.63
2022-08-03T08:53:27.670Z,101210.78
2022-08-03T08:55:58.268Z,101213.78
2022-08-03T08:58:28.553Z,101208.63
2022-08-03T09:00:54.918Z,101201.44
2022-08-03T09:03:22.648Z,101206.44
2022-08-03T09:05:56.962Z,101210.44
2022-08-03T09:08:23.360Z,101204.03
2022-08-03T09:10:49.682Z,101200.56
2022-08-03T09:13:16.145Z,101199.91
2022-08-03T09:15:42.461Z,101198.63
2022-08-03T09:18:33.375Z,101204.09
2022-08-03T09:21:31.052Z,101202.03
2022-08-03T09:24:02.845Z,101200.28
2022-08-03T09:26:31.341Z,101213.13
2022-08-03T09:29:08.179Z,101197.03
2022-08-03T09:31:43.765Z,101203.44
2022-08-03T09:34:14.894Z,101204.03
2022-08-03T09:36:42.946Z,101205.66
2022-08-03T09:39:13.684Z,101199.25
2022-08-03T09:41:40.907Z,101210.19
2022-08-03T09:44:08.336Z,101209.78
2022-08-03T09:46:53.414Z,101202.03
2022-08-03T09:49:19.932Z,101204.97
2022-08-03T09:52:37.929Z,101211.91
2022-08-03T09:54:34.245Z,101221.28
2022-08-03T09:57:00.863Z,101197.53
2022-08-03T09:59:28.810Z,101203.44
2022-08-03T10:01:56.002Z,101198.75
2022-08-03T10:04:22.533Z,101201.88
2022-08-03T10:07:09.372Z,101198.44
2022-08-03T10:09:36.546Z,101188.66
2022-08-03T10:12:12.632Z,101184.50
2022-08-03T10:14:39.619Z,101194.19
2022-08-03T10:17:06.030Z,101205.28
2022-08-03T10:19:32.809Z,101192.16
2022-08-03T10:22:02.566Z,101186.28
2022-08-03T10:24:30.147Z,101202.38
2022-08-03T10:27:01.197Z,101199.81
2022-08-03T10:29:28.473Z,101192.47
2022-08-03T10:31:58.626Z,101189.34
2022-08-03T10:34:31.296Z,101198.38
2022-08-03T10:37:00.136Z,101191.13
2022-08-03T10:39:29.590Z,101188.75
2022-08-03T10:41:58.689Z,101193.03
2022-08-03T10:44:29.993Z,101179.44
2022-08-03T10:46:56.675Z,101182.28
2022-08-03T10:49:33.768Z,101175.47
2022-08-03T10:52:02.693Z,101181.16
2022-08-03T10:55:07.503Z,101187.06
2022-08-03T10:57:42.477Z,101184.72
2022-08-03T11:00:10.080Z,101187.91
2022-08-03T11:02:55.332Z,101190.28
2022-08-03T11:05:25.627Z,101196.59
2022-08-03T11:08:11.867Z,101194.94
2022-08-03T11:10:38.420Z,101182.59
2022-08-03T11:13:07.964Z,101186.66
2022-08-03T11:15:35.823Z,101185.91
2022-08-03T11:18:08.303Z,101189.03
2022-08-03T11:20:51.451Z,101189.47
2022-08-03T11:23:19.130Z,101190.13
2022-08-03T11:26:08.510Z,101186.03
2022-08-03T11:28:34.921Z,101188.56
2022-08-03T11:31:46.870Z,101199.78
2022-08-03T11:34:10.498Z,101194.19
2022-08-03T11:36:58.851Z,101195.84
2022-08-03T11:39:38.298Z,101204.34
2022-08-03T11:42:33.873Z,101195.13
2022-08-03T11:45:00.861Z,101197.00
2022-08-03T11:47:28.394Z,101204.53
2022-08-03T11:49:55.788Z,101203.63
2022-08-03T11:52:26.959Z,101203.22
2022-08-03T11:54:56.632Z,101191.97
2022-08-03T11:59:17.464Z,101200.63
2022-08-03T12:00:22.284Z,101191.44
2022-08-03T12:03:08.403Z,101196.53
2022-08-03T12:05:51.315Z,101197.66
2022-08-03T12:08:27.868Z,101194.56
2022-08-03T12:10:55.221Z,101191.19
2022-08-03T12:14:10.661Z,101193.97
2022-08-03T12:16:09.118Z,101185.66
2022-08-03T12:18:36.208Z,101183.13
2022-08-03T12:21:07.091Z,101184.09
2022-08-03T12:23:37.629Z,101183.28
2022-08-03T12:26:08.904Z,101180.44
2022-08-03T12:28:36.950Z,101184.19
2022-08-03T12:31:09.104Z,101182.59
2022-08-03T12:33:54.077Z,101177.47
2022-08-03T12:36:20.464Z,101184.41
2022-08-03T12:38:53.928Z,101181.31
2022-08-03T12:41:27.062Z,101176.22
2022-08-03T12:43:55.018Z,101174.66
2022-08-03T12:46:21.388Z,101187.09
2022-08-03T12:49:01.178Z,101183.84
2022-08-03T12:51:32.239Z,101183.28
2022-08-03T12:53:59.546Z,101178.84
2022-08-03T12:56:26.173Z,101186.22
2022-08-03T12:58:53.072Z,101188.28
2022-08-03T13:01:22.416Z,101195.13
2022-08-03T13:03:52.930Z,101192.13
2022-08-03T13:06:24.172Z,101195.66
2022-08-03T13:08:51.579Z,101198.16
2022-08-03T13:11:50.539Z,101200.22
2022-08-03T13:14:16.900Z,101192.78
2022-08-03T13:16:46.194Z,101199.16
2022-08-03T13:19:15.458Z,101189.69
2022-08-03T13:21:53.887Z,101195.00
2022-08-03T13:24:29.320Z,101199.00
2022-08-03T13:26:56.937Z,101196.78
2022-08-03T13:29:23.256Z,101188.50
2022-08-03T13:31:50.911Z,101186.25
2022-08-03T13:34:22.254Z,101188.00
2022-08-03T13:39:48.215Z,101189.38
2022-08-03T13:42:22.846Z,101187.63
2022-08-03T13:44:49.177Z,101188.63
2022-08-03T13:47:15.498Z,101183.66
2022-08-03T13:49:42.055Z,101175.00
2022-08-03T13:52:20.978Z,101172.94
2022-08-03T13:54:47.499Z,101173.56
2022-08-03T13:58:03.561Z,101184.09
2022-08-03T14:00:00.307Z,101186.41
2022-08-03T14:02:26.703Z,101165.25
2022-08-03T14:04:54.612Z,101177.44
2022-08-03T14:07:21.290Z,101179.22
2022-08-03T14:09:47.765Z,101181.22
2022-08-03T14:12:14.161Z,101176.69
2022-08-03T14:14:40.846Z,101168.19
2022-08-03T14:17:07.226Z,101174.56
2022-08-03T14:19:34.215Z,101171.91
2022-08-03T14:22:19.212Z,101176.09
2022-08-03T14:24:45.557Z,101168.19
2022-08-03T14:27:12.025Z,101171.34
2022-08-03T14:29:38.370Z,101170.06
2022-08-03T14:32:09.617Z,101177.25
2022-08-03T14:34:38.569Z,101174.06
2022-08-03T14:37:04.972Z,101171.50
2022-08-03T14:39:58.203Z,101173.66
2022-08-03T14:42:17.721Z,101176.97
2022-08-03T14:44:44.102Z,101170.47
2022-08-03T14:47:10.525Z,101168.28
2022-08-03T14:50:37.281Z,101168.72
2022-08-03T14:52:23.180Z,101170.31
2022-08-03T14:54:49.520Z,101172.00
2022-08-03T14:57:15.852Z,101170.34
2022-08-03T14:59:56.081Z,101170.63
2022-08-03T15:02:24.320Z,101161.72
2022-08-03T15:04:50.867Z,101168.69
2022-08-03T15:07:17.298Z,101156.97
2022-08-03T15:09:43.643Z,101169.75
2022-08-03T15:12:09.982Z,101169.25
2022-08-03T15:14:37.822Z,101167.09
2022-08-03T15:17:04.743Z,101163.59
2022-08-03T15:20:03.860Z,101165.88
2022-08-03T15:22:20.627Z,101166.06
2022-08-03T15:24:51.595Z,101166.91
2022-08-03T15:27:18.009Z,101172.41
2022-08-03T15:30:07.562Z,101166.53
2022-08-03T15:32:30.799Z,101168.25
2022-08-03T15:34:57.113Z,101166.53
2022-08-03T15:37:25.601Z,101166.25
2022-08-03T15:39:59.968Z,101169.78
2022-08-03T15:42:27.293Z,101167.25
2022-08-03T15:44:53.942Z,101159.78
2022-08-03T15:47:21.406Z,101164.75
2022-08-03T15:49:47.852Z,101160.75
2022-08-03T15:52:15.122Z,101163.13
2022-08-03T15:54:41.496Z,101165.09
2022-08-03T15:57:07.835Z,101167.81
2022-08-03T15:59:34.299Z,101160.66
2022-08-03T16:02:00.685Z,101161.00
2022-08-03T16:04:27.103Z,101161.00
2022-08-03T16:06:53.422Z,101164.50
2022-08-03T16:09:22.915Z,101158.53
2022-08-03T16:12:06.167Z,101161.50
2022-08-03T16:14:51.728Z,101158.66
2022-08-03T16:17:19.855Z,101163.63
2022-08-03T16:19:46.381Z,101158.31
2022-08-03T16:22:12.821Z,101158.19
2022-08-03T16:24:40.792Z,101159.91
2022-08-03T16:27:12.859Z,101161.66
2022-08-03T16:29:44.460Z,101168.69
2022-08-03T16:32:10.947Z,101163.88
2022-08-03T16:34:38.068Z,101168.72
2022-08-03T16:37:22.149Z,101177.28
2022-08-03T16:39:51.196Z,101166.47
2022-08-03T16:42:17.496Z,101167.38
2022-08-03T16:44:43.940Z,101167.34
2022-08-03T16:47:10.257Z,101168.63
2022-08-03T16:49:55.126Z,101161.69
2022-08-03T16:52:22.855Z,101156.06
2022-08-03T16:54:53.078Z,101165.47
2022-08-03T16:57:55.670Z,101158.28
2022-08-03T17:00:11.713Z,101154.56
2022-08-03T17:02:40.816Z,101164.63
2022-08-03T17:05:14.570Z,101170.22
2022-08-03T17:07:41.130Z,101170.31
2022-08-03T17:10:07.836Z,101162.78
2022-08-03T17:12:35.084Z,101168.59
2022-08-03T17:15:01.584Z,101174.06
2022-08-03T17:17:30.107Z,101169.84
2022-08-03T17:20:09.780Z,101169.34
2022-08-03T17:22:39.181Z,101173.91
2022-08-03T17:25:09.531Z,101177.41
2022-08-03T17:28:49.702Z,101174.78
2022-08-03T17:30:56.358Z,101174.38
2022-08-03T17:33:26.928Z,101175.06
2022-08-03T17:36:02.036Z,101179.84
2022-08-03T17:38:28.957Z,101172.66
2022-08-03T17:41:01.327Z,101174.91
2022-08-03T17:44:13.534Z,101176.09
2022-08-03T17:46:26.596Z,101180.94
2022-08-03T17:48:54.069Z,101177.34
2022-08-03T17:51:46.162Z,101182.16
2022-08-03T17:54:19.888Z,101183.16
2022-08-03T17:56:51.521Z,101188.25
2022-08-03T17:59:51.829Z,101186.91
2022-08-03T18:02:33.841Z,101191.91
2022-08-03T18:05:16.450Z,101203.97
2022-08-03T18:08:01.679Z,101200.16
2022-08-03T18:10:33.598Z,101208.50
2022-08-03T18:13:10.420Z,101206.19
2022-08-03T18:15:47.010Z,101209.44
2022-08-03T18:18:15.816Z,101206.78
2022-08-03T18:20:45.498Z,101209.53
2022-08-03T18:23:24.957Z,101207.53
2022-08-03T18:26:00.273Z,101214.22
2022-08-03T18:28:27.334Z,101221.16
2022-08-03T18:30:56.951Z,101220.59
2022-08-03T18:36:17.468Z,101219.22
2022-08-03T18:38:46.442Z,101218.06
2022-08-03T18:41:17.558Z,101230.25
2022-08-03T18:44:06.749Z,101224.25
2022-08-03T18:46:33.863Z,101222.31
2022-08-03T18:49:11.446Z,101225.81
2022-08-03T18:51:43.249Z,101231.88
2022-08-03T18:54:51.791Z,101224.31
2022-08-03T18:57:08.169Z,101237.69
2022-08-03T18:59:40.955Z,101231.19
2022-08-03T19:02:20.570Z,101235.69
2022-08-03T19:04:48.132Z,101241.22
2022-08-03T19:07:23.759Z,101244.63
2022-08-03T19:10:19.051Z,101245.31
2022-08-03T19:12:54.334Z,101246.00
2022-08-03T19:15:36.359Z,101245.56
2022-08-03T19:18:08.847Z,101243.56
2022-08-03T19:20:37.514Z,101248.78
2022-08-03T19:23:04.085Z,101252.22
2022-08-03T19:25:37.621Z,101253.84
2022-08-03T19:28:06.341Z,101263.38
2022-08-03T19:30:39.534Z,101263.44
2022-08-03T19:33:07.580Z,101267.19
2022-08-03T19:35:49.749Z,101260.41
2022-08-03T19:38:27.543Z,101271.66
2022-08-03T19:40:57.235Z,101273.44
2022-08-03T19:43:32.968Z,101273.88
2022-08-03T19:46:14.142Z,101274.25
2022-08-03T19:48:42.663Z,101275.00
2022-08-03T19:51:12.293Z,101273.03
2022-08-03T19:53:43.159Z,101273.47
2022-08-03T19:56:12.652Z,101271.16
2022-08-03T19:58:39.181Z,101277.78
2022-08-03T20:01:19.194Z,101285.28
2022-08-03T20:03:48.050Z,101284.94
2022-08-03T20:06:20.300Z,101291.59
2022-08-03T20:08:48.150Z,101288.47
2022-08-03T20:11:18.029Z,101280.63
2022-08-03T20:13:46.049Z,101286.06
2022-08-03T20:16:14.731Z,101276.44
2022-08-03T20:18:42.424Z,101287.41
2022-08-03T20:21:15.293Z,101287.50
2022-08-03T20:24:01.739Z,101286.78
2022-08-03T20:26:30.236Z,101291.56
2022-08-03T20:29:00.759Z,101296.28
2022-08-03T20:31:36.403Z,101298.50
2022-08-03T20:34:03.584Z,101295.41
2022-08-03T20:36:30.219Z,101294.69
2022-08-03T20:38:58.037Z,101297.56
2022-08-03T20:41:24.493Z,101299.56
2022-08-03T20:43:51.067Z,101305.06
2022-08-03T20:46:31.310Z,101308.91
2022-08-03T20:49:03.797Z,101309.28
2022-08-03T20:51:49.025Z,101320.28
2022-08-03T20:54:22.900Z,101330.59
2022-08-03T20:56:57.025Z,101326.00
2022-08-03T20:59:23.664Z,101326.72
2022-08-03T21:01:50.675Z,101324.09
2022-08-03T21:04:21.015Z,101329.78
2022-08-03T21:06:57.560Z,101331.66
2022-08-03T21:09:33.214Z,101326.28
2022-08-03T21:12:03.019Z,101325.66
2022-08-03T21:13:05.029Z,101218.56
2022-08-03T21:14:43.256Z,101326.16
2022-08-03T21:17:25.068Z,101325.44
2022-08-03T21:19:57.669Z,101325.88
2022-08-03T21:22:25.805Z,101327.78
2022-08-03T21:24:57.237Z,101322.34
2022-08-03T21:27:24.818Z,101330.66
2022-08-03T21:29:53.249Z,101333.50
2022-08-03T21:32:33.033Z,101333.75
2022-08-03T21:35:00.421Z,101334.84
2022-08-03T21:37:27.088Z,101337.88
2022-08-03T21:39:54.524Z,101338.00
2022-08-03T21:42:24.300Z,101329.06
2022-08-03T21:44:53.723Z,101328.25
2022-08-03T21:47:24.304Z,101332.91
2022-08-03T21:50:06.579Z,101335.94
2022-08-03T21:52:36.299Z,101333.50
2022-08-03T21:55:06.032Z,101328.28
2022-08-03T21:57:33.633Z,101330.38
2022-08-03T22:00:07.526Z,101323.41
2022-08-03T22:02:34.572Z,101329.84
2022-08-03T22:05:05.019Z,101331.78
2022-08-03T22:07:32.663Z,101337.38
2022-08-03T22:10:00.902Z,101332.28
2022-08-03T22:12:28.373Z,101338.75
2022-08-03T22:15:00.182Z,101346.91
2022-08-03T22:17:55.418Z,101341.53
2022-08-03T22:20:14.872Z,101335.25
2022-08-03T22:22:43.569Z,101341.53
2022-08-03T22:25:23.938Z,101347.09
2022-08-03T22:27:52.445Z,101342.84
2022-08-03T22:30:19.014Z,101342.06
2022-08-03T22:32:45.951Z,101343.16
2022-08-03T22:35:14.146Z,101345.16
2022-08-03T22:37:41.244Z,101346.09
2022-08-03T22:40:09.151Z,101343.41
2022-08-03T22:42:35.807Z,101333.66
2022-08-03T22:45:04.543Z,101338.38
2022-08-03T22:47:32.147Z,101334.97
2022-08-03T22:50:32.843Z,101338.56
2022-08-03T22:52:45.454Z,101341.44
2022-08-03T22:55:24.714Z,101330.91
2022-08-03T22:57:55.879Z,101335.38
2022-08-03T23:00:22.572Z,101333.53
2022-08-03T23:02:49.678Z,101335.19
2022-08-03T23:06:01.154Z,101335.25
2022-08-03T23:08:04.314Z,101331.88
2022-08-03T23:10:33.391Z,101333.75
2022-08-03T23:13:00.931Z,101331.16
2022-08-03T23:15:29.426Z,101332.09
2022-08-03T23:17:58.611Z,101328.53
2022-08-03T23:20:26.586Z,101326.78
2022-08-03T23:22:53.964Z,101326.81
2022-08-03T23:25:21.858Z,101324.88
2022-08-03T23:27:49.284Z,101332.88
2022-08-03T23:30:32.790Z,101333.84
2022-08-03T23:33:01.094Z,101335.84
2022-08-03T23:36:28.529Z,101339.59
2022-08-03T23:38:46.844Z,101333.53
2022-08-03T23:41:13.421Z,101331.88
2022-08-03T23:43:52.192Z,101327.53
2022-08-03T23:46:21.285Z,101332.25
2022-08-03T23:48:47.652Z,101338.53
2022-08-03T23:51:19.585Z,101327.97
2022-08-03T23:53:52.870Z,101326.19
2022-08-03T23:56:37.608Z,101339.63
2022-08-03T23:59:08.775Z,101334.47
